Time;durP1;ratioP1;P1;durP2;ratioP2;P2;SDS_P1;SDS_P2;PMS_P1;PMS_P2;Temp;Humidity;BMP_temperature;BMP_pressure;BME280_temperature;BME280_humidity;BME280_pressure;Samples;Min_cycle;Max_cycle;Signal;HPM_P1;HPM_P2
2024/04/21 00:01:50;809344.00;2.70;1397.42;98097.00;0.33;170.29;;;;;8.90;1.00;;;;;;2308832;60;3548;31
2024/04/21 00:06:51;596829.00;1.99;1028.74;94954.00;0.32;164.86;;;;;8.60;1.00;;;;;;2307927;61;3525;31
2024/04/21 00:34:38;167811.00;0.56;290.50;0.00;0.00;0.62;;;;;9.90;1.00;;;;;;2308475;60;3363;31
2024/04/21 00:52:09;368221.00;1.23;635.18;0.00;0.00;0.62;;;;;8.70;1.00;;;;;;2308980;60;3507;31
2024/04/21 01:22:48;679912.00;2.27;1172.42;0.00;0.00;0.62;;;;;8.40;1.00;;;;;;2324048;60;3598;31
2024/04/21 01:27:46;271681.00;0.91;469.23;0.00;0.00;0.62;;;;;8.70;1.00;;;;;;2308784;61;3441;31
2024/04/21 01:32:52;563640.00;1.88;971.48;0.00;0.00;0.62;;;;;8.70;1.00;;;;;;2301534;61;3354;31
2024/04/21 01:45:30;1005224.00;3.35;1741.73;92329.00;0.31;160.33;;;;;8.70;1.00;;;;;;2302619;61;3597;31
2024/04/21 01:55:36;126150160.00;420.50;81335248.00;114360.00;0.38;198.35;;;;;8.30;1.00;;;;;;2197582;61;3286;31
2024/04/21 02:10:53;1076421.00;3.59;1868.31;0.00;0.00;0.62;;;;;8.30;1.00;;;;;;2155270;66;1270;-92
2024/04/21 02:33:56;7588.00;0.03;13.77;0.00;0.00;0.62;;;;;8.10;1.00;;;;;;2206011;61;3216;31
2024/04/21 02:44:34;564061.00;1.88;972.20;0.00;0.00;0.62;;;;;9.00;1.00;;;;;;2164045;66;1190;-89
2024/04/21 02:52:48;1561212.00;5.20;2758.84;73916.00;0.25;128.53;;;;;9.60;1.00;;;;;;2164114;66;1370;-90
2024/04/21 03:33:08;600669.00;2.00;1035.38;0.00;0.00;0.62;;;;;9.60;1.00;;;;;;2300696;61;3476;31
2024/04/21 04:26:32;848096.00;2.83;1465.14;52741.00;0.18;91.93;;;;;10.60;1.00;;;;;;2301497;61;3430;31
2024/04/21 05:26:46;184170.00;0.61;318.67;0.00;0.00;0.62;;;;;8.80;1.00;;;;;;2304263;61;3547;31
2024/04/21 06:00:08;457153.00;1.52;788.09;93701.00;0.31;162.70;;;;;9.20;1.00;;;;;;2302911;61;3409;31
2024/04/21 06:27:40;703170.00;2.34;1212.74;84144.00;0.28;146.19;;;;;9.20;1.00;;;;;;2297315;61;3499;31
2024/04/21 06:45:07;654039.00;2.18;1127.62;0.00;0.00;0.62;;;;;9.00;1.00;;;;;;2163687;66;1346;-85
2024/04/21 06:47:32;366802.00;1.22;632.74;0.00;0.00;0.62;;;;;9.00;1.00;;;;;;2177156;61;3630;-86
2024/04/21 06:50:01;649578.00;2.17;1119.91;0.00;0.00;0.62;;;;;9.60;1.00;;;;;;2164800;66;1620;-85
2024/04/21 06:52:27;756545.00;2.52;1305.44;0.00;0.00;0.62;;;;;9.30;1.00;;;;;;2164723;66;1541;-88
2024/04/21 06:54:56;457104.00;1.52;788.00;0.00;0.00;0.62;;;;;9.00;1.00;;;;;;2164847;66;863;-87
2024/04/21 06:57:22;678306.00;2.26;1169.64;0.00;0.00;0.62;;;;;9.10;1.00;;;;;;2164680;66;1221;-87
2024/04/21 07:02:22;734209.00;2.45;1266.61;9749.00;0.03;17.51;;;;;8.50;1.00;;;;;;1191970;61;3577;-86
2024/04/21 07:17:17;477113.00;1.59;822.43;0.00;0.00;0.62;;;;;9.00;1.00;;;;;;2171466;61;3469;-87
2024/04/21 07:19:47;281617.00;0.94;486.32;0.00;0.00;0.62;;;;;9.20;1.00;;;;;;2175037;62;3505;-87
2024/04/21 07:22:15;563310.00;1.88;970.91;0.00;0.00;0.62;;;;;9.40;1.00;;;;;;2169847;66;1895;-87
2024/04/21 07:24:41;435508.00;1.45;750.86;0.00;0.00;0.62;;;;;9.20;1.00;;;;;;2169794;66;1577;-84
2024/04/21 07:27:09;416329.00;1.39;717.88;0.00;0.00;0.62;;;;;9.20;1.00;;;;;;2173671;60;3478;-87
2024/04/21 07:29:35;382291.00;1.27;659.36;0.00;0.00;0.62;;;;;9.20;1.00;;;;;;2169899;66;1378;-86
2024/04/21 07:37:04;401894.00;1.34;693.06;0.00;0.00;0.62;;;;;9.20;1.00;;;;;;2158015;66;1384;-88
2024/04/21 07:39:30;299213.00;1.00;516.57;0.00;0.00;0.62;;;;;9.60;1.00;;;;;;2158563;66;1310;-87
2024/04/21 07:49:22;538981.00;1.80;928.97;0.00;0.00;0.62;;;;;9.20;1.00;;;;;;2163536;66;1532;-86
2024/04/21 07:51:47;464109.00;1.55;800.05;0.00;0.00;0.62;;;;;9.50;1.00;;;;;;2164247;66;951;-87
2024/04/21 07:54:19;422182.00;1.41;727.94;0.00;0.00;0.62;;;;;9.20;1.00;;;;;;2164111;66;1088;-87
2024/04/21 07:56:45;231739.00;0.77;400.54;0.00;0.00;0.62;;;;;9.30;1.00;;;;;;2164272;66;834;-86
2024/04/21 07:59:13;335165.00;1.12;578.36;0.00;0.00;0.62;;;;;9.10;1.00;;;;;;2164163;66;1213;-86
2024/04/21 08:01:39;275981.00;0.92;476.63;0.00;0.00;0.62;;;;;8.80;1.00;;;;;;2164015;66;1862;-88
2024/04/21 08:04:08;385994.00;1.29;665.73;13562.00;0.05;24.12;;;;;8.90;1.00;;;;;;2164222;66;1603;-88
2024/04/21 08:06:33;295601.00;0.99;510.36;0.00;0.00;0.62;;;;;9.20;1.00;;;;;;2164194;66;1736;-87
2024/04/21 08:09:02;509491.00;1.70;878.17;43152.00;0.14;75.34;;;;;9.30;1.00;;;;;;2164190;66;1243;-87
2024/04/21 08:11:30;634027.00;2.11;1093.01;32670.00;0.11;57.20;;;;;9.10;1.00;;;;;;2164167;66;1635;-87
2024/04/21 08:13:59;401680.00;1.34;692.69;0.00;0.00;0.62;;;;;9.00;1.00;;;;;;2164097;66;1497;-86
2024/04/21 08:16:25;238202.00;0.79;411.66;0.00;0.00;0.62;;;;;9.00;1.00;;;;;;2164193;66;1189;-86
2024/04/21 08:18:54;438412.00;1.46;755.85;0.00;0.00;0.62;;;;;9.00;1.00;;;;;;2164241;66;1245;-86
2024/04/21 08:21:20;328298.00;1.09;566.56;0.00;0.00;0.62;;;;;9.20;1.00;;;;;;2164294;66;1937;-84
2024/04/21 08:23:48;487381.00;1.62;840.10;0.00;0.00;0.62;;;;;9.50;1.00;;;;;;2164339;66;1057;-86
2024/04/21 08:26:14;335588.00;1.12;579.09;0.00;0.00;0.62;;;;;9.70;1.00;;;;;;2164329;66;1016;-85
2024/04/21 08:28:45;361849.00;1.21;624.23;0.00;0.00;0.62;;;;;9.80;1.00;;;;;;2164257;66;1227;-85
2024/04/21 08:31:11;414055.00;1.38;713.97;0.00;0.00;0.62;;;;;10.00;1.00;;;;;;2163832;66;1017;-83
2024/04/21 08:33:39;451141.00;1.50;777.75;16527.00;0.06;29.26;;;;;10.40;1.00;;;;;;2163946;66;998;-86
2024/04/21 08:36:06;623484.00;2.08;1074.79;0.00;0.00;0.62;;;;;10.30;1.00;;;;;;2164232;66;2428;-85
2024/04/21 08:38:34;296162.00;0.99;511.32;0.00;0.00;0.62;;;;;10.40;1.00;;;;;;2164228;66;1694;-85
2024/04/21 08:41:08;467215.00;1.56;805.40;0.00;0.00;0.62;;;;;10.50;1.00;;;;;;2164206;66;1858;-85
2024/04/21 08:43:37;251377.00;0.84;434.32;0.00;0.00;0.62;;;;;10.80;1.00;;;;;;2164228;66;1074;-85
2024/04/21 08:46:05;136106.00;0.45;235.86;0.00;0.00;0.62;;;;;11.10;1.00;;;;;;2164196;66;1549;-86
2024/04/21 08:48:34;272970.00;0.91;471.45;16819.00;0.06;29.76;;;;;10.90;1.00;;;;;;2164128;66;1240;-85
2024/04/21 08:51:02;16060.00;0.05;28.45;0.00;0.00;0.62;;;;;10.70;1.00;;;;;;2164205;66;1794;-84
2024/04/21 08:53:31;425890.00;1.42;734.32;23586.00;0.08;41.48;;;;;10.50;1.00;;;;;;2164275;66;999;-85
2024/04/21 08:56:00;356278.00;1.19;614.65;0.00;0.00;0.62;;;;;10.70;1.00;;;;;;2164266;66;1170;-86
2024/04/21 08:58:29;244885.00;0.82;423.15;0.00;0.00;0.62;;;;;10.80;1.00;;;;;;2164283;66;1211;-86
2024/04/21 09:00:56;337079.00;1.12;581.65;0.00;0.00;0.62;;;;;11.10;1.00;;;;;;2164317;66;1877;-85
2024/04/21 09:03:28;515954.00;1.72;889.30;21407.00;0.07;37.71;;;;;10.90;1.00;;;;;;2164130;66;1652;-85
2024/04/21 09:10:57;558283.00;1.86;962.24;0.00;0.00;0.62;;;;;10.80;1.00;;;;;;2163492;66;1372;-87
2024/04/21 09:13:24;106059.00;0.35;184.03;0.00;0.00;0.62;;;;;10.50;1.00;;;;;;2208451;61;3554;-87
2024/04/21 09:25:54;249959.00;0.83;431.88;0.00;0.00;0.62;;;;;8.70;1.00;;;;;;2169238;66;1393;-85
2024/04/21 09:28:19;231717.00;0.77;400.50;46148.00;0.15;80.52;;;;;8.10;1.00;;;;;;2170044;65;1675;-86
2024/04/21 09:30:48;365659.00;1.22;630.78;0.00;0.00;0.62;;;;;8.50;1.00;;;;;;2169961;65;1643;-87
2024/04/21 09:33:14;145398.00;0.48;251.88;0.00;0.00;0.62;;;;;9.00;1.00;;;;;;2169840;65;1539;-87
2024/04/21 09:38:11;236417.00;0.79;408.59;0.00;0.00;0.62;;;;;9.10;1.00;;;;;;2163557;66;1369;-87
2024/04/21 09:40:37;265657.00;0.89;458.88;63143.00;0.21;109.91;;;;;9.30;1.00;;;;;;2164252;65;1069;-88
2024/04/21 09:43:11;123822.00;0.41;214.67;0.00;0.00;0.62;;;;;9.30;1.00;;;;;;2164687;65;1905;-88
2024/04/21 09:45:37;150946.00;0.50;261.44;0.00;0.00;0.62;;;;;9.50;1.00;;;;;;2164972;65;1553;-86
2024/04/21 09:48:08;196071.00;0.65;339.16;0.00;0.00;0.62;;;;;9.30;1.00;;;;;;2164986;65;1278;-89
2024/04/21 09:53:34;586084.00;1.95;1010.20;54873.00;0.18;95.61;;;;;9.70;1.00;;;;;;2164932;66;1355;-91
2024/04/21 09:58:43;237326.00;0.79;410.15;0.00;0.00;0.62;;;;;9.70;1.00;;;;;;2170591;66;1254;-88
2024/04/21 10:03:48;544274.00;1.81;938.09;0.00;0.00;0.62;;;;;9.10;1.00;;;;;;2165638;61;3465;-86
2024/04/21 10:06:15;257968.00;0.86;445.65;52895.00;0.18;92.19;;;;;9.40;1.00;;;;;;2174615;61;3520;-88
2024/04/21 10:08:47;148834.00;0.50;257.80;0.00;0.00;0.62;;;;;9.40;1.00;;;;;;2166584;61;3554;-87
2024/04/21 10:11:13;103254.00;0.34;179.19;0.00;0.00;0.62;;;;;9.20;1.00;;;;;;2165068;66;1281;-88
2024/04/21 10:13:48;149331.00;0.50;258.65;0.00;0.00;0.62;;;;;9.60;1.00;;;;;;2164581;66;914;-88
2024/04/21 10:16:14;399830.00;1.33;689.51;0.00;0.00;0.62;;;;;9.60;1.00;;;;;;2164460;66;1683;-88
2024/04/21 10:18:45;78668.00;0.26;136.74;0.00;0.00;0.62;;;;;9.70;1.00;;;;;;2164329;66;1610;-86
2024/04/21 10:21:15;123806.00;0.41;214.65;0.00;0.00;0.62;;;;;10.00;1.00;;;;;;2177106;62;3633;-87
2024/04/21 10:23:44;184220.00;0.61;318.76;0.00;0.00;0.62;;;;;10.00;1.00;;;;;;2172277;60;3654;-88
2024/04/21 10:26:10;177218.00;0.59;306.70;0.00;0.00;0.62;;;;;9.90;1.00;;;;;;2170040;66;1810;-87
2024/04/21 10:28:39;259139.00;0.86;447.67;15138.00;0.05;26.85;;;;;10.20;1.00;;;;;;2170040;66;1644;-86
2024/04/21 10:31:10;269956.00;0.90;466.27;47919.00;0.16;83.59;;;;;11.10;1.00;;;;;;2175560;61;3656;-85
2024/04/21 10:33:41;264157.00;0.88;456.30;33602.00;0.11;58.82;;;;;11.10;1.00;;;;;;2175882;61;3526;-87
2024/04/21 10:38:38;372495.00;1.24;642.53;21917.00;0.07;38.59;;;;;10.90;1.00;;;;;;2169593;66;1342;-86
2024/04/21 10:41:08;101253.00;0.34;175.73;0.00;0.00;0.62;;;;;11.50;1.00;;;;;;2169854;66;1909;-87
2024/04/21 10:43:37;198193.00;0.66;342.81;0.00;0.00;0.62;;;;;11.80;1.00;;;;;;2170072;66;1031;-85
2024/04/21 10:46:03;135667.00;0.45;235.10;0.00;0.00;0.62;;;;;11.80;1.00;;;;;;2169947;66;1643;-87
2024/04/21 10:48:37;216533.00;0.72;374.38;0.00;0.00;0.62;;;;;11.80;1.00;;;;;;2168793;61;3614;-86
2024/04/21 10:53:37;239452.00;0.80;413.81;28348.00;0.09;49.72;;;;;11.00;1.00;;;;;;2178065;61;3622;-86
2024/04/21 10:56:07;51755.00;0.17;90.22;0.00;0.00;0.62;;;;;11.20;1.00;;;;;;2169997;66;883;-86
2024/04/21 11:01:05;401454.00;1.34;692.30;0.00;0.00;0.62;;;;;11.70;1.00;;;;;;1175955;61;3488;-86
2024/04/21 11:03:35;409719.00;1.37;706.51;0.00;0.00;0.62;;;;;12.80;1.00;;;;;;2176105;62;3593;-87
2024/04/21 11:06:05;316650.00;1.06;546.54;8721.00;0.03;15.73;;;;;12.90;1.00;;;;;;2169964;66;995;-88
2024/04/21 11:08:32;40383.00;0.13;70.55;0.00;0.00;0.62;;;;;13.20;1.00;;;;;;2178045;60;3653;-88
2024/04/21 11:13:30;570210.00;1.90;982.81;60413.00;0.20;105.19;;;;;12.70;1.00;;;;;;2168650;61;3558;-87
2024/04/21 11:18:46;403678.00;1.35;696.13;0.00;0.00;0.62;;;;;12.30;1.00;;;;;;2166529;61;3596;31
2024/04/21 11:23:47;121132.00;0.40;210.04;0.00;0.00;0.62;;;;;12.70;1.00;;;;;;2163694;66;1415;-87
2024/04/21 11:26:16;164380.00;0.55;284.59;54646.00;0.18;95.22;;;;;12.20;1.00;;;;;;2164290;66;1615;-87
2024/04/21 11:28:45;181625.00;0.61;314.29;0.00;0.00;0.62;;;;;11.90;1.00;;;;;;2164271;66;1617;-86
2024/04/21 11:31:13;24003.00;0.08;42.20;0.00;0.00;0.62;;;;;11.60;1.00;;;;;;2165479;61;3540;-87
2024/04/21 11:33:42;327486.00;1.09;565.17;0.00;0.00;0.62;;;;;11.50;1.00;;;;;;2164283;66;2319;-86
2024/04/21 11:36:14;269707.00;0.90;465.84;0.00;0.00;0.62;;;;;11.50;1.00;;;;;;2176428;60;3654;-89
2024/04/21 11:48:54;325606.00;1.09;561.93;0.00;0.00;0.62;;;;;13.40;1.00;;;;;;2163514;66;1396;-87
2024/04/21 11:54:02;209834.00;0.70;362.85;0.00;0.00;0.62;;;;;12.70;1.00;;;;;;2175222;62;2030;-86
2024/04/21 11:56:30;158872.00;0.53;275.10;0.00;0.00;0.62;;;;;12.90;1.00;;;;;;2164156;66;1812;-87
2024/04/21 12:01:29;233426.00;0.78;403.44;0.00;0.00;0.62;;;;;12.90;1.00;;;;;;2169918;66;1889;-89
2024/04/21 12:19:03;526785.00;1.76;907.95;127901.00;0.43;221.71;;;;;13.80;1.00;;;;;;2163505;66;1447;-87
2024/04/21 12:21:29;288118.00;0.96;497.49;92738.00;0.31;161.04;;;;;13.70;1.00;;;;;;2164126;66;1899;-87
2024/04/21 12:26:27;534041.00;1.78;920.45;86613.00;0.29;150.46;;;;;13.60;1.00;;;;;;2171290;61;3435;-87
2024/04/21 12:52:18;286654.00;0.96;494.98;0.00;0.00;0.62;;;;;12.30;1.00;;;;;;2162920;66;1358;-89
2024/04/21 12:59:58;49336.00;0.16;86.04;0.00;0.00;0.62;;;;;12.50;1.00;;;;;;2124672;61;3105;-86
2024/04/21 13:45:39;742013.00;2.47;1280.17;88360.00;0.29;153.48;;;;;8.90;1.00;;;;;;2157594;66;1368;-89
2024/04/21 13:50:49;666519.00;2.22;1149.23;0.00;0.00;0.62;;;;;8.50;1.00;;;;;;2158205;66;1416;-87
2024/04/21 14:28:20;512712.00;1.71;883.71;0.00;0.00;0.62;;;;;12.00;1.00;;;;;;2165404;61;3567;-86
2024/04/21 14:41:42;551078.00;1.84;949.82;63540.00;0.21;110.60;;;;;12.00;1.00;;;;;;1280909;61;3531;-87
2024/04/21 15:01:38;108954.00;0.36;189.03;0.00;0.00;0.62;;;;;13.00;1.00;;;;;;2158730;66;1861;-88
2024/04/21 15:04:04;216831.00;0.72;374.89;5888.00;0.02;10.82;;;;;12.90;1.00;;;;;;2159272;66;1801;-89
2024/04/21 15:09:06;485054.00;1.62;836.10;42906.00;0.14;74.92;;;;;12.60;1.00;;;;;;2177868;61;3578;-86
2024/04/21 15:24:11;478911.00;1.60;825.52;87915.00;0.29;152.71;;;;;12.70;1.00;;;;;;2163586;66;1177;-87
2024/04/21 15:26:59;700022.00;2.33;1207.28;139680.00;0.47;242.02;;;;;12.20;1.00;;;;;;2224760;61;3721;31
2024/04/21 15:34:25;778740.00;2.60;1344.07;0.00;0.00;0.62;;;;;11.70;1.00;;;;;;2163837;66;1340;-88
2024/04/21 16:14:27;300380.00;1.00;518.57;0.00;0.00;0.62;;;;;9.00;1.00;;;;;;2172883;62;3652;-87
2024/04/21 16:16:55;15739.00;0.05;27.89;0.00;0.00;0.62;;;;;9.20;1.00;;;;;;2175705;61;3673;-88
2024/04/21 16:19:23;170419.00;0.57;294.99;0.00;0.00;0.62;;;;;8.80;1.00;;;;;;2177497;61;3660;-84
2024/04/21 16:46:58;113706.00;0.38;197.22;0.00;0.00;0.62;;;;;10.30;1.00;;;;;;2163987;66;1375;-89
2024/04/21 16:51:56;201870.00;0.67;349.14;0.00;0.00;0.62;;;;;10.20;1.00;;;;;;2163876;66;1372;-88
2024/04/21 16:54:22;41306.00;0.14;72.15;0.00;0.00;0.62;;;;;10.30;1.00;;;;;;2164620;66;1248;-85
2024/04/21 16:59:23;128470.00;0.43;222.69;0.00;0.00;0.62;;;;;10.40;1.00;;;;;;2158650;66;1396;-87
2024/04/21 17:06:55;241136.00;0.80;416.71;0.00;0.00;0.62;;;;;9.50;1.00;;;;;;2157891;66;1455;-87
2024/04/21 17:09:22;88510.00;0.30;153.73;0.00;0.00;0.62;;;;;9.40;1.00;;;;;;2153707;66;1391;-87
2024/04/21 17:14:18;125967.00;0.42;218.37;0.00;0.00;0.62;;;;;8.70;1.00;;;;;;2157831;66;1828;-85
2024/04/21 17:16:44;42151.00;0.14;73.61;0.00;0.00;0.62;;;;;9.00;1.00;;;;;;2158523;66;920;-85
2024/04/21 17:19:12;138938.00;0.46;240.74;0.00;0.00;0.62;;;;;9.20;1.00;;;;;;2154507;66;1366;-87
2024/04/21 17:24:11;329701.00;1.10;568.97;0.00;0.00;0.62;;;;;9.50;1.00;;;;;;2158355;66;1397;-87
2024/04/21 17:26:37;111713.00;0.37;193.79;0.00;0.00;0.62;;;;;9.20;1.00;;;;;;2158617;66;1180;-87
2024/04/21 17:29:06;81488.00;0.27;141.61;0.00;0.00;0.62;;;;;9.00;1.00;;;;;;2154759;66;1266;-87
2024/04/21 17:31:32;146164.00;0.49;253.20;17108.00;0.06;30.26;;;;;8.80;1.00;;;;;;2152760;66;1508;-87
2024/04/21 17:36:28;135834.00;0.45;235.39;0.00;0.00;0.62;;;;;8.20;1.00;;;;;;2163549;66;1400;-87
2024/04/21 17:38:54;147850.00;0.49;256.10;0.00;0.00;0.62;;;;;8.00;1.00;;;;;;2160473;66;1560;-88
2024/04/21 17:41:26;438357.00;1.46;755.76;27686.00;0.09;48.58;;;;;7.70;1.00;;;;;;2158466;66;1004;-85
2024/04/21 17:43:52;73648.00;0.25;128.06;0.00;0.00;0.62;;;;;7.80;1.00;;;;;;2158451;66;1905;-87
2024/04/21 17:46:20;321170.00;1.07;554.31;35349.00;0.12;61.84;;;;;7.70;1.00;;;;;;2158472;66;1698;-86
2024/04/21 17:48:46;65914.00;0.22;114.70;0.00;0.00;0.62;;;;;7.40;1.00;;;;;;2158470;66;1239;-87
2024/04/21 17:51:15;121769.00;0.41;211.13;0.00;0.00;0.62;;;;;7.90;1.00;;;;;;2158489;66;1273;-86
2024/04/21 17:53:41;52846.00;0.18;92.11;0.00;0.00;0.62;;;;;8.00;1.00;;;;;;2158513;66;991;-88
2024/04/21 17:56:10;102730.00;0.34;178.28;0.00;0.00;0.62;;;;;7.90;1.00;;;;;;2158456;66;1534;-87
2024/04/21 17:58:40;84572.00;0.28;146.93;0.00;0.00;0.62;;;;;8.10;1.00;;;;;;2158415;66;1290;-87
2024/04/21 18:01:10;47680.00;0.16;83.17;0.00;0.00;0.62;;;;;7.90;1.00;;;;;;2162875;66;1306;-87
2024/04/21 18:03:35;29339.00;0.10;51.44;0.00;0.00;0.62;;;;;8.20;1.00;;;;;;2158597;66;1869;-85
2024/04/21 18:06:06;69744.00;0.23;121.32;0.00;0.00;0.62;;;;;8.30;1.00;;;;;;2159001;66;1013;-87
2024/04/21 18:08:32;164506.00;0.55;284.80;0.00;0.00;0.62;;;;;8.40;1.00;;;;;;2159025;66;1325;-87
2024/04/21 18:11:03;165377.00;0.55;286.30;0.00;0.00;0.62;;;;;8.40;1.00;;;;;;2158944;66;1537;-87
2024/04/21 18:13:30;96175.00;0.32;166.97;0.00;0.00;0.62;;;;;8.60;1.00;;;;;;2158853;66;1574;-88
2024/04/21 18:16:01;99057.00;0.33;171.94;0.00;0.00;0.62;;;;;9.10;1.00;;;;;;2159012;66;1656;-86
2024/04/21 18:18:28;83060.00;0.28;144.32;0.00;0.00;0.62;;;;;9.50;1.00;;;;;;2159008;66;1354;-86
2024/04/21 18:20:56;735.00;0.00;1.89;0.00;0.00;0.62;;;;;9.60;1.00;;;;;;2158787;66;1652;-86
2024/04/21 18:26:01;23705.00;0.08;41.69;0.00;0.00;0.62;;;;;9.30;1.00;;;;;;2164047;66;1388;-86
2024/04/21 18:31:05;98199.00;0.33;170.46;0.00;0.00;0.62;;;;;9.30;1.00;;;;;;2164118;66;1352;-86
2024/04/21 18:33:31;59672.00;0.20;103.91;0.00;0.00;0.62;;;;;9.60;1.00;;;;;;2164446;66;1657;-87
2024/04/21 18:36:01;94927.00;0.32;164.81;0.00;0.00;0.62;;;;;10.20;1.00;;;;;;2164513;66;1629;-86
2024/04/21 18:38:27;149472.00;0.50;258.90;0.00;0.00;0.62;;;;;10.30;1.00;;;;;;2167024;62;3509;-86
2024/04/21 18:40:56;121616.00;0.41;210.87;0.00;0.00;0.62;;;;;10.30;1.00;;;;;;2164414;66;1059;-85
2024/04/21 18:43:22;73506.00;0.25;127.82;0.00;0.00;0.62;;;;;10.10;1.00;;;;;;2164431;66;1902;-86
2024/04/21 18:45:51;6175.00;0.02;11.32;0.00;0.00;0.62;;;;;9.60;1.00;;;;;;2164540;66;1025;-85
2024/04/21 18:48:25;84013.00;0.28;145.97;0.00;0.00;0.62;;;;;10.50;1.00;;;;;;2164823;66;1254;-88
2024/04/21 18:50:53;19127.00;0.06;33.76;0.00;0.00;0.62;;;;;10.30;1.00;;;;;;2164497;66;1541;-86
2024/04/21 18:53:23;29859.00;0.10;52.34;0.00;0.00;0.62;;;;;10.00;1.00;;;;;;2170152;61;3638;-85
2024/04/21 18:55:49;31023.00;0.10;54.35;0.00;0.00;0.62;;;;;10.30;1.00;;;;;;2170159;66;905;-86
2024/04/21 18:58:18;143279.00;0.48;248.22;0.00;0.00;0.62;;;;;10.90;1.00;;;;;;2169559;62;3634;-85
2024/04/21 19:00:43;151009.00;0.50;261.55;0.00;0.00;0.62;;;;;10.80;1.00;;;;;;2162907;61;3546;-85
2024/04/21 19:03:12;53748.00;0.18;93.67;0.00;0.00;0.62;;;;;10.60;1.00;;;;;;2158876;66;1897;-87
2024/04/21 19:05:42;13611.00;0.05;24.20;0.00;0.00;0.62;;;;;10.30;1.00;;;;;;2158744;66;1688;-86
2024/04/21 19:08:12;217635.00;0.73;376.27;34505.00;0.12;60.38;;;;;10.60;1.00;;;;;;2158682;66;1645;-87
2024/04/21 19:10:40;4170.00;0.01;7.85;0.00;0.00;0.62;;;;;11.20;1.00;;;;;;2158812;66;1013;-87
2024/04/21 19:13:11;55321.00;0.18;96.39;0.00;0.00;0.62;;;;;11.20;1.00;;;;;;2158785;66;1537;-87
2024/04/21 19:15:37;70862.00;0.24;123.25;0.00;0.00;0.62;;;;;11.00;1.00;;;;;;2158682;66;914;-86
2024/04/21 19:18:12;141113.00;0.47;244.49;0.00;0.00;0.62;;;;;10.40;1.00;;;;;;2158655;66;1248;-87
2024/04/21 19:20:42;79736.00;0.27;138.58;0.00;0.00;0.62;;;;;10.80;1.00;;;;;;2158813;66;1090;-87
2024/04/21 19:23:12;39955.00;0.13;69.81;0.00;0.00;0.62;;;;;10.50;1.00;;;;;;2158707;66;1858;-86
2024/04/21 19:25:38;74508.00;0.25;129.55;0.00;0.00;0.62;;;;;10.10;1.00;;;;;;2158776;66;1239;-87
2024/04/21 19:28:08;19190.00;0.06;33.87;0.00;0.00;0.62;;;;;10.10;1.00;;;;;;2158649;66;1548;-86
2024/04/21 19:30:35;179902.00;0.60;311.32;0.00;0.00;0.62;;;;;10.10;1.00;;;;;;2158714;66;1011;-86
2024/04/21 19:33:05;133704.00;0.45;231.72;0.00;0.00;0.62;;;;;9.70;1.00;;;;;;2158625;66;1560;-86
2024/04/21 19:35:31;89266.00;0.30;155.04;0.00;0.00;0.62;;;;;9.50;1.00;;;;;;2158684;66;977;-86
2024/04/21 19:38:02;157132.00;0.52;272.10;0.00;0.00;0.62;;;;;9.40;1.00;;;;;;2158700;66;1243;-86
2024/04/21 19:40:28;28384.00;0.09;49.79;0.00;0.00;0.62;;;;;9.40;1.00;;;;;;2158838;66;986;-86
2024/04/21 19:42:56;316533.00;1.06;546.34;0.00;0.00;0.62;;;;;9.90;1.00;;;;;;2158577;66;1862;-86
2024/04/21 19:45:23;175374.00;0.58;303.52;0.00;0.00;0.62;;;;;10.10;1.00;;;;;;2158757;66;875;-86
2024/04/21 19:47:52;270452.00;0.90;467.12;17696.00;0.06;31.28;;;;;10.40;1.00;;;;;;2158597;66;1244;-87
2024/04/21 19:50:18;80690.00;0.27;140.23;0.00;0.00;0.62;;;;;10.60;1.00;;;;;;2158624;66;932;-87
2024/04/21 19:52:47;142855.00;0.48;247.49;0.00;0.00;0.62;;;;;10.90;1.00;;;;;;2158649;66;1719;-86
2024/04/21 19:55:16;212052.00;0.71;366.67;0.00;0.00;0.62;;;;;10.70;1.00;;;;;;2158644;66;1647;-87
2024/04/21 19:57:44;91984.00;0.31;159.73;0.00;0.00;0.62;;;;;10.60;1.00;;;;;;2158723;66;1274;-87
2024/04/21 20:00:11;106531.00;0.36;184.84;0.00;0.00;0.62;;;;;10.00;1.00;;;;;;2158712;66;870;-86
2024/04/21 20:02:40;261296.00;0.87;451.38;0.00;0.00;0.62;;;;;9.60;1.00;;;;;;2158544;66;1896;-86
2024/04/21 20:05:06;126506.00;0.42;219.30;0.00;0.00;0.62;;;;;9.90;1.00;;;;;;2158542;66;1080;-86
2024/04/21 20:07:36;38747.00;0.13;67.72;0.00;0.00;0.62;;;;;10.30;1.00;;;;;;2158502;66;1400;-87
2024/04/21 20:10:02;39215.00;0.13;68.53;0.00;0.00;0.62;;;;;10.50;1.00;;;;;;2158603;66;1027;-87
2024/04/21 20:12:33;180984.00;0.60;313.18;0.00;0.00;0.62;;;;;10.70;1.00;;;;;;2158531;66;1560;-85
2024/04/21 20:20:30;27169.00;0.09;47.68;0.00;0.00;0.62;;;;;11.00;1.00;;;;;;2158619;66;673;-86
2024/04/21 20:22:59;34408.00;0.11;60.21;0.00;0.00;0.62;;;;;11.20;1.00;;;;;;2158588;66;1907;-86
2024/04/21 20:25:27;124213.00;0.41;215.35;0.00;0.00;0.62;;;;;11.20;1.00;;;;;;2158421;66;1489;-86
2024/04/21 20:27:56;53677.00;0.18;93.54;0.00;0.00;0.62;;;;;11.30;1.00;;;;;;2158459;66;2180;-86
2024/04/21 20:30:24;124748.00;0.42;216.27;0.00;0.00;0.62;;;;;11.30;1.00;;;;;;2158593;66;929;-87
2024/04/21 20:32:50;40046.00;0.13;69.97;0.00;0.00;0.62;;;;;11.40;1.00;;;;;;2158263;66;952;-86
2024/04/21 20:35:18;126728.00;0.42;219.69;0.00;0.00;0.62;;;;;11.50;1.00;;;;;;2158296;66;979;-86
2024/04/21 20:37:44;83812.00;0.28;145.62;0.00;0.00;0.62;;;;;11.20;1.00;;;;;;2158646;66;1231;-85
2024/04/21 20:40:13;56105.00;0.19;97.74;0.00;0.00;0.62;;;;;10.70;1.00;;;;;;2158435;66;1009;-87
2024/04/21 20:42:39;71759.00;0.24;124.80;0.00;0.00;0.62;;;;;10.80;1.00;;;;;;2158445;66;1895;-87
2024/04/21 20:45:10;90032.00;0.30;156.36;0.00;0.00;0.62;;;;;10.70;1.00;;;;;;2158451;66;1565;-86
2024/04/21 20:47:36;34983.00;0.12;61.21;0.00;0.00;0.62;;;;;10.80;1.00;;;;;;2158478;66;1308;-87
2024/04/21 20:50:05;228115.00;0.76;394.31;0.00;0.00;0.62;;;;;11.10;1.00;;;;;;2158572;66;1065;-86
2024/04/21 20:52:33;156695.00;0.52;271.34;0.00;0.00;0.62;;;;;11.40;1.00;;;;;;2158384;66;1548;-86
2024/04/21 20:55:01;128711.00;0.43;223.11;0.00;0.00;0.62;;;;;11.20;1.00;;;;;;2158598;66;1065;-86
2024/04/21 20:57:27;215106.00;0.72;371.92;0.00;0.00;0.62;;;;;11.60;1.00;;;;;;2158533;66;1249;-86
2024/04/21 20:59:56;142904.00;0.48;247.58;0.00;0.00;0.62;;;;;11.90;1.00;;;;;;2158529;66;1003;-86
2024/04/21 21:02:25;107293.00;0.36;186.16;15559.00;0.05;27.58;;;;;11.50;1.00;;;;;;2158439;66;1930;-86
2024/04/21 21:04:54;63403.00;0.21;110.36;0.00;0.00;0.62;;;;;11.60;1.00;;;;;;2158487;66;1626;-87
2024/04/21 21:07:20;57981.00;0.19;100.99;0.00;0.00;0.62;;;;;11.50;1.00;;;;;;2158458;66;1023;-87
2024/04/21 21:09:48;77656.00;0.26;134.99;0.00;0.00;0.62;;;;;11.60;1.00;;;;;;2158477;66;1452;-87
2024/04/21 21:12:15;154861.00;0.52;268.18;0.00;0.00;0.62;;;;;11.90;1.00;;;;;;2158546;66;940;-86
2024/04/21 21:14:43;19822.00;0.07;34.96;0.00;0.00;0.62;;;;;11.80;1.00;;;;;;2158358;66;1563;-86
2024/04/21 21:17:10;172851.00;0.58;299.18;47498.00;0.16;82.86;;;;;11.30;1.00;;;;;;2158446;66;957;-87
2024/04/21 21:19:41;74914.00;0.25;130.25;0.00;0.00;0.62;;;;;11.30;1.00;;;;;;2158967;66;1227;-86
2024/04/21 21:22:07;68203.00;0.23;118.66;0.00;0.00;0.62;;;;;11.50;1.00;;;;;;2158481;66;1516;-86
2024/04/21 21:24:36;112285.00;0.37;194.77;0.00;0.00;0.62;;;;;11.40;1.00;;;;;;2158531;66;1864;-87
2024/04/21 21:27:02;17053.00;0.06;30.17;0.00;0.00;0.62;;;;;11.30;1.00;;;;;;2158499;66;1640;-86
2024/04/21 21:29:30;46641.00;0.16;81.38;0.00;0.00;0.62;;;;;11.20;1.00;;;;;;2158496;66;1220;-87
2024/04/21 21:31:56;136.00;0.00;0.86;0.00;0.00;0.62;;;;;11.00;1.00;;;;;;2158492;66;1088;-86
2024/04/21 21:34:25;35634.00;0.12;62.33;0.00;0.00;0.62;;;;;11.20;1.00;;;;;;2158356;66;1543;-86
2024/04/21 21:36:53;66204.00;0.22;115.20;0.00;0.00;0.62;;;;;11.10;1.00;;;;;;2158439;66;1304;-85
2024/04/21 21:39:21;61322.00;0.20;106.76;0.00;0.00;0.62;;;;;11.10;1.00;;;;;;2158893;66;1252;-86
2024/04/21 21:41:47;50076.00;0.17;87.32;0.00;0.00;0.62;;;;;11.10;1.00;;;;;;2158939;66;928;-84
2024/04/21 21:44:16;17682.00;0.06;31.26;0.00;0.00;0.62;;;;;10.90;1.00;;;;;;2158934;66;1861;-86
2024/04/21 21:46:41;11378.00;0.04;20.34;0.00;0.00;0.62;;;;;10.40;1.00;;;;;;2158863;66;1099;-87
2024/04/21 21:49:10;38112.00;0.13;66.62;0.00;0.00;0.62;;;;;9.80;1.00;;;;;;2158803;66;1591;-87
2024/04/21 21:51:36;37153.00;0.12;64.96;0.00;0.00;0.62;;;;;9.70;1.00;;;;;;2158912;66;1116;-86
2024/04/21 21:54:07;237654.00;0.79;410.72;69021.00;0.23;120.07;;;;;9.10;1.00;;;;;;2158942;66;1207;-88